sensor_id;sensor_type;location;lat;lon;timestamp;pressure;altitude;pressure_sealevel;temperature;humidity
73918;BME280;63639;52.280;5.162;2023-01-19T00:02:14;100031.93;;;5.50;77.82
73918;BME280;63639;52.280;5.162;2023-01-19T00:04:41;100022.98;;;5.15;78.88
73918;BME280;63639;52.280;5.162;2023-01-19T00:07:08;100027.66;;;5.45;78.04
73918;BME280;63639;52.280;5.162;2023-01-19T00:09:35;100027.21;;;5.48;77.43
73918;BME280;63639;52.280;5.162;2023-01-19T00:12:03;100022.13;;;5.72;76.98
73918;BME280;63639;52.280;5.162;2023-01-19T00:14:30;100020.02;;;5.75;76.81
73918;BME280;63639;52.280;5.162;2023-01-19T00:16:57;100020.81;;;5.71;76.85
73918;BME280;63639;52.280;5.162;2023-01-19T00:19:24;100029.68;;;5.82;76.99
73918;BME280;63639;52.280;5.162;2023-01-19T00:21:51;100030.65;;;5.81;76.55
73918;BME280;63639;52.280;5.162;2023-01-19T00:24:18;100034.46;;;5.74;76.92
73918;BME280;63639;52.280;5.162;2023-01-19T00:26:45;100032.76;;;5.46;77.69
73918;BME280;63639;52.280;5.162;2023-01-19T00:29:13;100022.35;;;5.69;77.18
73918;BME280;63639;52.280;5.162;2023-01-19T00:31:40;100027.65;;;5.91;76.87
73918;BME280;63639;52.280;5.162;2023-01-19T00:34:07;100032.97;;;6.22;75.83
73918;BME280;63639;52.280;5.162;2023-01-19T00:36:34;100031.64;;;6.33;75.23
73918;BME280;63639;52.280;5.162;2023-01-19T00:39:01;100032.07;;;6.42;75.53
73918;BME280;63639;52.280;5.162;2023-01-19T00:41:28;100036.23;;;6.41;75.55
73918;BME280;63639;52.280;5.162;2023-01-19T00:43:55;100038.74;;;6.46;75.40
73918;BME280;63639;52.280;5.162;2023-01-19T00:46:22;100045.12;;;6.38;75.73
73918;BME280;63639;52.280;5.162;2023-01-19T00:48:49;100044.31;;;5.87;76.22
73918;BME280;63639;52.280;5.162;2023-01-19T00:51:16;100043.22;;;5.95;76.29
73918;BME280;63639;52.280;5.162;2023-01-19T00:53:43;100042.96;;;5.92;76.54
73918;BME280;63639;52.280;5.162;2023-01-19T00:56:10;100047.51;;;6.33;75.56
73918;BME280;63639;52.280;5.162;2023-01-19T00:58:37;100044.55;;;6.15;75.33
73918;BME280;63639;52.280;5.162;2023-01-19T01:01:04;100049.57;;;6.28;75.05
73918;BME280;63639;52.280;5.162;2023-01-19T01:03:31;100044.95;;;6.39;74.70
73918;BME280;63639;52.280;5.162;2023-01-19T01:05:58;100043.46;;;6.52;74.27
73918;BME280;63639;52.280;5.162;2023-01-19T01:08:25;100046.50;;;6.51;74.08
73918;BME280;63639;52.280;5.162;2023-01-19T01:10:53;100041.53;;;6.55;74.20
73918;BME280;63639;52.280;5.162;2023-01-19T01:13:20;100044.31;;;6.41;74.91
73918;BME280;63639;52.280;5.162;2023-01-19T01:15:48;100049.38;;;6.42;75.56
73918;BME280;63639;52.280;5.162;2023-01-19T01:18:15;100048.31;;;6.21;76.28
73918;BME280;63639;52.280;5.162;2023-01-19T01:20:42;100048.65;;;5.99;77.55
73918;BME280;63639;52.280;5.162;2023-01-19T01:23:09;100044.05;;;5.79;78.36
73918;BME280;63639;52.280;5.162;2023-01-19T01:25:36;100042.67;;;6.06;78.48
73918;BME280;63639;52.280;5.162;2023-01-19T01:28:03;100043.55;;;6.42;77.43
73918;BME280;63639;52.280;5.162;2023-01-19T01:30:30;100042.36;;;6.58;75.92
73918;BME280;63639;52.280;5.162;2023-01-19T01:32:57;100041.16;;;6.63;75.96
73918;BME280;63639;52.280;5.162;2023-01-19T01:35:24;100040.82;;;6.85;75.67
73918;BME280;63639;52.280;5.162;2023-01-19T01:37:51;100046.36;;;6.91;74.53
73918;BME280;63639;52.280;5.162;2023-01-19T01:40:18;100052.28;;;6.64;75.53
73918;BME280;63639;52.280;5.162;2023-01-19T01:42:45;100051.34;;;6.87;75.13
73918;BME280;63639;52.280;5.162;2023-01-19T01:45:27;100062.88;;;6.82;75.46
73918;BME280;63639;52.280;5.162;2023-01-19T01:47:56;100062.66;;;6.94;75.20
73918;BME280;63639;52.280;5.162;2023-01-19T01:50:28;100064.54;;;7.03;75.18
73918;BME280;63639;52.280;5.162;2023-01-19T01:52:58;100064.13;;;7.02;75.14
73918;BME280;63639;52.280;5.162;2023-01-19T01:55:27;100067.43;;;6.88;75.94
73918;BME280;63639;52.280;5.162;2023-01-19T01:57:57;100072.30;;;6.71;76.35
73918;BME280;63639;52.280;5.162;2023-01-19T02:01:24;100072.32;;;6.83;76.36
73918;BME280;63639;52.280;5.162;2023-01-19T02:03:51;100074.94;;;6.81;76.70
73918;BME280;63639;52.280;5.162;2023-01-19T02:06:19;100074.48;;;6.87;75.85
73918;BME280;63639;52.280;5.162;2023-01-19T02:08:51;100080.63;;;6.88;75.87
73918;BME280;63639;52.280;5.162;2023-01-19T02:11:20;100082.92;;;6.85;75.95
73918;BME280;63639;52.280;5.162;2023-01-19T02:13:48;100085.94;;;6.93;75.84
73918;BME280;63639;52.280;5.162;2023-01-19T02:16:16;100090.12;;;7.03;75.29
73918;BME280;63639;52.280;5.162;2023-01-19T02:18:43;100100.03;;;7.02;75.22
73918;BME280;63639;52.280;5.162;2023-01-19T02:21:18;100107.78;;;7.16;74.88
73918;BME280;63639;52.280;5.162;2023-01-19T02:23:48;100107.83;;;7.19;74.62
73918;BME280;63639;52.280;5.162;2023-01-19T02:26:18;100119.29;;;6.85;75.43
73918;BME280;63639;52.280;5.162;2023-01-19T02:28:47;100130.06;;;6.84;75.81
73918;BME280;63639;52.280;5.162;2023-01-19T02:31:16;100121.58;;;6.63;75.81
73918;BME280;63639;52.280;5.162;2023-01-19T02:33:43;100126.03;;;6.48;76.07
73918;BME280;63639;52.280;5.162;2023-01-19T02:36:12;100127.76;;;6.62;76.00
73918;BME280;63639;52.280;5.162;2023-01-19T02:38:42;100127.64;;;6.34;76.47
73918;BME280;63639;52.280;5.162;2023-01-19T02:41:13;100131.13;;;6.15;76.65
73918;BME280;63639;52.280;5.162;2023-01-19T02:43:42;100131.10;;;6.19;76.49
73918;BME280;63639;52.280;5.162;2023-01-19T02:46:09;100127.37;;;6.48;75.22
73918;BME280;63639;52.280;5.162;2023-01-19T02:48:36;100127.82;;;6.41;74.83
73918;BME280;63639;52.280;5.162;2023-01-19T02:51:11;100128.87;;;6.70;73.98
73918;BME280;63639;52.280;5.162;2023-01-19T02:53:58;100131.11;;;6.88;73.54
73918;BME280;63639;52.280;5.162;2023-01-19T02:56:37;100127.06;;;6.89;73.28
73918;BME280;63639;52.280;5.162;2023-01-19T02:59:08;100126.03;;;6.78;72.79
73918;BME280;63639;52.280;5.162;2023-01-19T03:01:49;100123.91;;;6.95;72.71
73918;BME280;63639;52.280;5.162;2023-01-19T03:04:25;100118.62;;;7.13;71.91
73918;BME280;63639;52.280;5.162;2023-01-19T03:06:58;100126.70;;;7.25;71.28
73918;BME280;63639;52.280;5.162;2023-01-19T03:09:30;100135.84;;;7.43;70.88
73918;BME280;63639;52.280;5.162;2023-01-19T03:12:05;100133.93;;;7.60;70.47
73918;BME280;63639;52.280;5.162;2023-01-19T03:14:36;100128.08;;;7.65;69.66
73918;BME280;63639;52.280;5.162;2023-01-19T03:17:08;100121.45;;;7.68;68.92
73918;BME280;63639;52.280;5.162;2023-01-19T03:19:39;100129.16;;;7.69;68.39
73918;BME280;63639;52.280;5.162;2023-01-19T03:22:10;100140.09;;;7.54;68.32
73918;BME280;63639;52.280;5.162;2023-01-19T03:24:40;100141.96;;;7.66;68.46
73918;BME280;63639;52.280;5.162;2023-01-19T03:27:11;100148.62;;;7.77;68.43
73918;BME280;63639;52.280;5.162;2023-01-19T03:29:42;100157.60;;;7.59;68.66
73918;BME280;63639;52.280;5.162;2023-01-19T03:32:15;100155.45;;;7.08;70.25
73918;BME280;63639;52.280;5.162;2023-01-19T03:34:43;100157.03;;;6.85;71.65
73918;BME280;63639;52.280;5.162;2023-01-19T03:37:13;100159.22;;;6.73;72.38
73918;BME280;63639;52.280;5.162;2023-01-19T03:39:42;100166.07;;;5.96;74.94
73918;BME280;63639;52.280;5.162;2023-01-19T03:42:11;100170.13;;;6.19;75.04
73918;BME280;63639;52.280;5.162;2023-01-19T03:44:41;100175.83;;;6.08;74.99
73918;BME280;63639;52.280;5.162;2023-01-19T03:47:10;100184.78;;;6.13;75.37
73918;BME280;63639;52.280;5.162;2023-01-19T03:49:38;100184.53;;;6.08;75.48
73918;BME280;63639;52.280;5.162;2023-01-19T03:52:07;100193.00;;;5.88;76.56
73918;BME280;63639;52.280;5.162;2023-01-19T03:54:34;100194.47;;;5.68;76.91
73918;BME280;63639;52.280;5.162;2023-01-19T03:57:01;100192.67;;;5.72;77.07
73918;BME280;63639;52.280;5.162;2023-01-19T03:59:28;100195.70;;;5.75;77.07
73918;BME280;63639;52.280;5.162;2023-01-19T04:01:55;100196.78;;;5.99;76.06
73918;BME280;63639;52.280;5.162;2023-01-19T04:04:22;100192.93;;;5.92;75.53
73918;BME280;63639;52.280;5.162;2023-01-19T04:06:49;100189.80;;;6.11;75.29
73918;BME280;63639;52.280;5.162;2023-01-19T04:09:16;100197.08;;;5.93;75.48
73918;BME280;63639;52.280;5.162;2023-01-19T04:11:43;100199.15;;;5.61;76.51
73918;BME280;63639;52.280;5.162;2023-01-19T04:14:10;100205.04;;;5.95;76.17
73918;BME280;63639;52.280;5.162;2023-01-19T04:16:37;100202.82;;;6.32;74.37
73918;BME280;63639;52.280;5.162;2023-01-19T04:19:04;100203.61;;;6.15;74.56
73918;BME280;63639;52.280;5.162;2023-01-19T04:21:31;100200.14;;;6.15;74.46
73918;BME280;63639;52.280;5.162;2023-01-19T04:23:58;100205.02;;;6.21;73.65
73918;BME280;63639;52.280;5.162;2023-01-19T04:26:24;100200.66;;;6.18;73.75
73918;BME280;63639;52.280;5.162;2023-01-19T04:28:51;100200.83;;;6.32;73.44
73918;BME280;63639;52.280;5.162;2023-01-19T04:31:19;100205.91;;;6.33;73.30
73918;BME280;63639;52.280;5.162;2023-01-19T04:33:46;100212.79;;;6.05;73.76
73918;BME280;63639;52.280;5.162;2023-01-19T04:36:13;100208.36;;;6.30;73.52
73918;BME280;63639;52.280;5.162;2023-01-19T04:38:40;100213.46;;;6.38;72.52
73918;BME280;63639;52.280;5.162;2023-01-19T04:41:07;100218.83;;;6.41;72.31
73918;BME280;63639;52.280;5.162;2023-01-19T04:43:34;100220.64;;;6.22;72.96
73918;BME280;63639;52.280;5.162;2023-01-19T04:46:01;100220.29;;;6.22;73.48
73918;BME280;63639;52.280;5.162;2023-01-19T04:48:28;100230.00;;;6.22;73.45
73918;BME280;63639;52.280;5.162;2023-01-19T04:50:55;100230.69;;;6.27;73.19
73918;BME280;63639;52.280;5.162;2023-01-19T04:53:22;100241.17;;;6.47;72.66
73918;BME280;63639;52.280;5.162;2023-01-19T04:55:52;100251.35;;;6.32;72.80
73918;BME280;63639;52.280;5.162;2023-01-19T04:58:19;100246.63;;;6.28;73.09
73918;BME280;63639;52.280;5.162;2023-01-19T05:00:46;100248.40;;;6.14;73.76
73918;BME280;63639;52.280;5.162;2023-01-19T05:03:13;100253.83;;;6.24;73.90
73918;BME280;63639;52.280;5.162;2023-01-19T05:05:40;100249.05;;;6.52;73.00
73918;BME280;63639;52.280;5.162;2023-01-19T05:08:07;100245.51;;;6.77;72.44
73918;BME280;63639;52.280;5.162;2023-01-19T05:10:34;100245.83;;;6.95;71.69
73918;BME280;63639;52.280;5.162;2023-01-19T05:13:01;100248.44;;;7.10;71.15
73918;BME280;63639;52.280;5.162;2023-01-19T05:15:27;100251.95;;;7.14;70.55
73918;BME280;63639;52.280;5.162;2023-01-19T05:17:54;100254.16;;;7.19;70.70
73918;BME280;63639;52.280;5.162;2023-01-19T05:20:21;100255.32;;;7.31;70.16
73918;BME280;63639;52.280;5.162;2023-01-19T05:22:48;100258.10;;;7.37;69.92
73918;BME280;63639;52.280;5.162;2023-01-19T05:25:16;100261.45;;;7.54;69.58
73918;BME280;63639;52.280;5.162;2023-01-19T05:27:43;100262.92;;;7.65;69.36
73918;BME280;63639;52.280;5.162;2023-01-19T05:30:11;100263.05;;;7.66;68.89
73918;BME280;63639;52.280;5.162;2023-01-19T05:32:38;100264.46;;;7.68;68.30
73918;BME280;63639;52.280;5.162;2023-01-19T05:35:05;100265.90;;;7.75;68.22
73918;BME280;63639;52.280;5.162;2023-01-19T05:37:32;100266.03;;;7.88;68.09
73918;BME280;63639;52.280;5.162;2023-01-19T05:39:59;100267.59;;;7.78;67.44
73918;BME280;63639;52.280;5.162;2023-01-19T05:42:26;100269.11;;;7.88;67.38
73918;BME280;63639;52.280;5.162;2023-01-19T05:44:53;100272.84;;;7.85;67.09
73918;BME280;63639;52.280;5.162;2023-01-19T05:47:20;100273.82;;;7.89;66.94
73918;BME280;63639;52.280;5.162;2023-01-19T05:49:46;100273.22;;;7.95;66.58
73918;BME280;63639;52.280;5.162;2023-01-19T05:52:13;100277.22;;;7.86;66.66
73918;BME280;63639;52.280;5.162;2023-01-19T05:54:40;100285.30;;;7.86;66.79
73918;BME280;63639;52.280;5.162;2023-01-19T05:57:07;100304.02;;;7.97;66.86
73918;BME280;63639;52.280;5.162;2023-01-19T05:59:34;100301.03;;;7.82;67.49
73918;BME280;63639;52.280;5.162;2023-01-19T06:02:01;100296.82;;;7.64;67.63
73918;BME280;63639;52.280;5.162;2023-01-19T06:04:28;100299.38;;;7.64;67.73
73918;BME280;63639;52.280;5.162;2023-01-19T06:06:55;100299.96;;;7.68;68.16
73918;BME280;63639;52.280;5.162;2023-01-19T06:09:22;100309.36;;;7.82;68.39
73918;BME280;63639;52.280;5.162;2023-01-19T06:11:49;100312.30;;;7.83;68.93
73918;BME280;63639;52.280;5.162;2023-01-19T06:14:16;100311.97;;;7.78;68.84
73918;BME280;63639;52.280;5.162;2023-01-19T06:16:42;100314.99;;;7.80;68.98
73918;BME280;63639;52.280;5.162;2023-01-19T06:19:09;100317.24;;;7.83;68.97
73918;BME280;63639;52.280;5.162;2023-01-19T06:21:36;100323.36;;;7.81;69.19
73918;BME280;63639;52.280;5.162;2023-01-19T06:24:04;100320.77;;;7.83;68.90
73918;BME280;63639;52.280;5.162;2023-01-19T06:26:31;100320.96;;;7.94;69.02
73918;BME280;63639;52.280;5.162;2023-01-19T06:28:58;100328.51;;;8.14;68.40
73918;BME280;63639;52.280;5.162;2023-01-19T06:31:25;100329.65;;;8.16;68.11
73918;BME280;63639;52.280;5.162;2023-01-19T06:33:52;100333.82;;;8.27;67.55
73918;BME280;63639;52.280;5.162;2023-01-19T06:36:18;100335.84;;;8.28;67.30
73918;BME280;63639;52.280;5.162;2023-01-19T06:38:45;100340.92;;;8.35;67.15
73918;BME280;63639;52.280;5.162;2023-01-19T06:41:12;100338.24;;;8.45;66.96
73918;BME280;63639;52.280;5.162;2023-01-19T06:43:39;100339.82;;;8.52;65.96
73918;BME280;63639;52.280;5.162;2023-01-19T06:46:06;100346.43;;;8.46;65.48
73918;BME280;63639;52.280;5.162;2023-01-19T06:48:33;100351.13;;;8.44;65.13
73918;BME280;63639;52.280;5.162;2023-01-19T06:51:00;100350.75;;;8.39;64.52
73918;BME280;63639;52.280;5.162;2023-01-19T06:53:27;100354.53;;;8.32;64.64
73918;BME280;63639;52.280;5.162;2023-01-19T06:55:57;100361.83;;;8.22;64.65
73918;BME280;63639;52.280;5.162;2023-01-19T06:58:24;100366.42;;;8.11;64.29
73918;BME280;63639;52.280;5.162;2023-01-19T07:00:52;100369.15;;;8.11;64.36
73918;BME280;63639;52.280;5.162;2023-01-19T07:03:21;100371.93;;;8.07;64.44
73918;BME280;63639;52.280;5.162;2023-01-19T07:05:50;100373.37;;;8.05;64.53
73918;BME280;63639;52.280;5.162;2023-01-19T07:08:18;100377.77;;;8.07;64.29
73918;BME280;63639;52.280;5.162;2023-01-19T07:10:44;100379.90;;;7.99;64.45
73918;BME280;63639;52.280;5.162;2023-01-19T07:13:11;100383.34;;;8.06;63.91
73918;BME280;63639;52.280;5.162;2023-01-19T07:15:38;100390.18;;;8.10;63.88
73918;BME280;63639;52.280;5.162;2023-01-19T07:18:05;100394.55;;;8.11;64.16
73918;BME280;63639;52.280;5.162;2023-01-19T07:20:33;100399.18;;;8.16;64.34
73918;BME280;63639;52.280;5.162;2023-01-19T07:23:00;100402.95;;;8.22;64.11
73918;BME280;63639;52.280;5.162;2023-01-19T07:25:27;100409.68;;;8.27;63.63
73918;BME280;63639;52.280;5.162;2023-01-19T07:27:56;100417.52;;;8.28;63.98
73918;BME280;63639;52.280;5.162;2023-01-19T07:30:24;100431.34;;;8.29;63.51
73918;BME280;63639;52.280;5.162;2023-01-19T07:32:50;100447.94;;;8.13;64.34
73918;BME280;63639;52.280;5.162;2023-01-19T07:35:20;100451.00;;;7.78;64.44
73918;BME280;63639;52.280;5.162;2023-01-19T07:37:47;100450.78;;;7.62;65.35
73918;BME280;63639;52.280;5.162;2023-01-19T07:40:14;100444.10;;;7.60;65.91
73918;BME280;63639;52.280;5.162;2023-01-19T07:42:45;100442.12;;;7.54;65.95
73918;BME280;63639;52.280;5.162;2023-01-19T07:45:12;100442.24;;;7.52;65.56
73918;BME280;63639;52.280;5.162;2023-01-19T07:47:39;100447.66;;;7.51;65.43
73918;BME280;63639;52.280;5.162;2023-01-19T07:50:09;100445.93;;;7.71;64.99
73918;BME280;63639;52.280;5.162;2023-01-19T07:52:36;100449.83;;;7.67;65.02
73918;BME280;63639;52.280;5.162;2023-01-19T07:55:04;100448.95;;;7.67;64.85
73918;BME280;63639;52.280;5.162;2023-01-19T07:57:31;100447.82;;;7.72;64.55
73918;BME280;63639;52.280;5.162;2023-01-19T07:59:58;100452.47;;;7.80;64.71
73918;BME280;63639;52.280;5.162;2023-01-19T08:02:25;100455.64;;;7.81;65.04
73918;BME280;63639;52.280;5.162;2023-01-19T08:04:51;100460.31;;;7.86;64.44
73918;BME280;63639;52.280;5.162;2023-01-19T08:07:19;100461.99;;;7.85;64.72
73918;BME280;63639;52.280;5.162;2023-01-19T08:09:45;100466.54;;;7.91;64.44
73918;BME280;63639;52.280;5.162;2023-01-19T08:12:12;100472.86;;;7.92;64.14
73918;BME280;63639;52.280;5.162;2023-01-19T08:14:39;100478.45;;;7.86;64.53
73918;BME280;63639;52.280;5.162;2023-01-19T08:17:06;100484.54;;;7.85;64.80
73918;BME280;63639;52.280;5.162;2023-01-19T08:19:33;100484.14;;;7.84;64.28
73918;BME280;63639;52.280;5.162;2023-01-19T08:22:00;100495.43;;;7.71;64.47
73918;BME280;63639;52.280;5.162;2023-01-19T08:24:27;100498.61;;;7.71;65.04
73918;BME280;63639;52.280;5.162;2023-01-19T08:26:57;100502.40;;;7.57;64.82
73918;BME280;63639;52.280;5.162;2023-01-19T08:29:24;100504.61;;;7.39;65.14
73918;BME280;63639;52.280;5.162;2023-01-19T08:31:52;100509.14;;;7.38;65.17
73918;BME280;63639;52.280;5.162;2023-01-19T08:34:18;100520.00;;;7.34;65.04
73918;BME280;63639;52.280;5.162;2023-01-19T08:36:45;100524.89;;;7.22;65.74
73918;BME280;63639;52.280;5.162;2023-01-19T08:39:12;100528.84;;;7.03;65.68
73918;BME280;63639;52.280;5.162;2023-01-19T08:41:39;100530.41;;;6.79;65.82
73918;BME280;63639;52.280;5.162;2023-01-19T08:44:06;100537.81;;;6.81;66.00
73918;BME280;63639;52.280;5.162;2023-01-19T08:46:33;100541.49;;;6.52;65.77
73918;BME280;63639;52.280;5.162;2023-01-19T08:49:00;100544.51;;;6.77;65.77
73918;BME280;63639;52.280;5.162;2023-01-19T08:51:27;100549.01;;;7.02;65.19
73918;BME280;63639;52.280;5.162;2023-01-19T08:53:54;100549.61;;;7.17;65.11
73918;BME280;63639;52.280;5.162;2023-01-19T08:56:21;100552.31;;;7.47;65.08
73918;BME280;63639;52.280;5.162;2023-01-19T08:58:48;100550.29;;;7.73;64.48
73918;BME280;63639;52.280;5.162;2023-01-19T09:01:15;100549.50;;;7.80;62.99
73918;BME280;63639;52.280;5.162;2023-01-19T09:03:42;100548.67;;;7.83;63.39
73918;BME280;63639;52.280;5.162;2023-01-19T09:06:10;100552.46;;;7.89;63.26
73918;BME280;63639;52.280;5.162;2023-01-19T09:08:37;100554.17;;;7.91;62.42
73918;BME280;63639;52.280;5.162;2023-01-19T09:11:08;100557.95;;;8.03;62.59
73918;BME280;63639;52.280;5.162;2023-01-19T09:13:40;100558.15;;;7.94;61.82
73918;BME280;63639;52.280;5.162;2023-01-19T09:16:09;100562.71;;;7.82;62.54
73918;BME280;63639;52.280;5.162;2023-01-19T09:18:36;100562.87;;;7.93;62.88
73918;BME280;63639;52.280;5.162;2023-01-19T09:21:03;100565.11;;;7.95;62.26
73918;BME280;63639;52.280;5.162;2023-01-19T09:23:30;100568.39;;;7.97;62.36
73918;BME280;63639;52.280;5.162;2023-01-19T09:25:59;100572.32;;;7.99;62.26
73918;BME280;63639;52.280;5.162;2023-01-19T09:28:27;100572.80;;;7.98;63.19
73918;BME280;63639;52.280;5.162;2023-01-19T09:30:54;100571.73;;;7.93;62.89
73918;BME280;63639;52.280;5.162;2023-01-19T09:33:21;100571.10;;;8.02;63.34
73918;BME280;63639;52.280;5.162;2023-01-19T09:35:50;100572.59;;;7.95;63.10
73918;BME280;63639;52.280;5.162;2023-01-19T09:38:18;100572.69;;;7.79;62.39
73918;BME280;63639;52.280;5.162;2023-01-19T09:40:48;100573.53;;;7.80;62.97
73918;BME280;63639;52.280;5.162;2023-01-19T09:43:20;100578.28;;;7.82;63.13
73918;BME280;63639;52.280;5.162;2023-01-19T09:45:52;100577.26;;;7.88;62.70
73918;BME280;63639;52.280;5.162;2023-01-19T09:48:27;100579.29;;;7.87;62.13
73918;BME280;63639;52.280;5.162;2023-01-19T09:50:59;100582.10;;;7.94;61.87
73918;BME280;63639;52.280;5.162;2023-01-19T09:53:38;100584.36;;;7.85;61.44
73918;BME280;63639;52.280;5.162;2023-01-19T09:56:11;100590.93;;;7.83;61.46
73918;BME280;63639;52.280;5.162;2023-01-19T09:58:39;100591.03;;;7.73;60.69
73918;BME280;63639;52.280;5.162;2023-01-19T10:01:19;100586.58;;;7.85;60.80
73918;BME280;63639;52.280;5.162;2023-01-19T10:03:51;100587.54;;;8.01;60.75
73918;BME280;63639;52.280;5.162;2023-01-19T10:06:25;100593.59;;;8.11;61.10
73918;BME280;63639;52.280;5.162;2023-01-19T10:08:57;100596.22;;;8.31;61.73
73918;BME280;63639;52.280;5.162;2023-01-19T10:11:31;100596.41;;;8.45;61.20
73918;BME280;63639;52.280;5.162;2023-01-19T10:14:00;100596.88;;;8.46;60.66
73918;BME280;63639;52.280;5.162;2023-01-19T10:16:33;100597.92;;;8.42;58.66
73918;BME280;63639;52.280;5.162;2023-01-19T10:19:16;100595.91;;;8.56;58.99
73918;BME280;63639;52.280;5.162;2023-01-19T10:21:46;100591.62;;;8.55;56.56
73918;BME280;63639;52.280;5.162;2023-01-19T10:24:17;100592.95;;;8.69;58.45
73918;BME280;63639;52.280;5.162;2023-01-19T10:26:48;100595.04;;;8.78;57.60
73918;BME280;63639;52.280;5.162;2023-01-19T10:29:21;100600.18;;;8.79;57.53
73918;BME280;63639;52.280;5.162;2023-01-19T10:31:50;100598.68;;;8.73;56.17
73918;BME280;63639;52.280;5.162;2023-01-19T10:34:18;100601.20;;;8.89;55.66
73918;BME280;63639;52.280;5.162;2023-01-19T10:36:47;100602.04;;;8.90;54.44
73918;BME280;63639;52.280;5.162;2023-01-19T10:39:17;100602.95;;;8.87;53.87
73918;BME280;63639;52.280;5.162;2023-01-19T10:41:49;100599.95;;;8.76;53.62
73918;BME280;63639;52.280;5.162;2023-01-19T10:44:22;100604.20;;;8.77;54.44
73918;BME280;63639;52.280;5.162;2023-01-19T10:46:49;100604.91;;;8.63;53.49
73918;BME280;63639;52.280;5.162;2023-01-19T10:49:26;100601.31;;;8.65;52.93
73918;BME280;63639;52.280;5.162;2023-01-19T10:51:54;100609.82;;;8.56;52.91
73918;BME280;63639;52.280;5.162;2023-01-19T10:54:21;100601.92;;;8.77;53.44
73918;BME280;63639;52.280;5.162;2023-01-19T10:56:52;100600.21;;;9.01;54.30
73918;BME280;63639;52.280;5.162;2023-01-19T10:59:37;100604.26;;;8.93;52.43
73918;BME280;63639;52.280;5.162;2023-01-19T11:02:20;100601.70;;;8.69;52.44
73918;BME280;63639;52.280;5.162;2023-01-19T11:04:49;100599.15;;;8.60;52.42
73918;BME280;63639;52.280;5.162;2023-01-19T11:07:19;100605.55;;;8.36;52.69
73918;BME280;63639;52.280;5.162;2023-01-19T11:09:46;100605.43;;;8.38;54.26
73918;BME280;63639;52.280;5.162;2023-01-19T11:12:18;100604.87;;;8.59;53.99
73918;BME280;63639;52.280;5.162;2023-01-19T11:14:46;100606.50;;;8.63;53.53
73918;BME280;63639;52.280;5.162;2023-01-19T11:17:19;100600.73;;;8.69;52.80
73918;BME280;63639;52.280;5.162;2023-01-19T11:19:54;100604.69;;;8.79;53.07
73918;BME280;63639;52.280;5.162;2023-01-19T11:22:26;100606.90;;;8.90;53.40
73918;BME280;63639;52.280;5.162;2023-01-19T11:24:57;100609.79;;;8.98;52.12
73918;BME280;63639;52.280;5.162;2023-01-19T11:27:25;100610.40;;;8.88;53.91
73918;BME280;63639;52.280;5.162;2023-01-19T11:30:02;100612.81;;;9.00;54.19
73918;BME280;63639;52.280;5.162;2023-01-19T11:32:30;100611.72;;;8.90;54.66
73918;BME280;63639;52.280;5.162;2023-01-19T11:34:57;100611.14;;;9.05;54.69
73918;BME280;63639;52.280;5.162;2023-01-19T11:37:27;100619.80;;;9.34;54.47
73918;BME280;63639;52.280;5.162;2023-01-19T11:39:56;100616.74;;;9.51;54.01
73918;BME280;63639;52.280;5.162;2023-01-19T11:42:25;100617.76;;;9.34;52.64
73918;BME280;63639;52.280;5.162;2023-01-19T11:44:59;100619.07;;;9.23;51.98
73918;BME280;63639;52.280;5.162;2023-01-19T11:47:31;100619.84;;;9.10;53.72
73918;BME280;63639;52.280;5.162;2023-01-19T11:50:05;100620.74;;;9.19;52.96
73918;BME280;63639;52.280;5.162;2023-01-19T11:52:41;100617.46;;;9.11;52.61
73918;BME280;63639;52.280;5.162;2023-01-19T11:55:15;100613.94;;;8.84;53.30
73918;BME280;63639;52.280;5.162;2023-01-19T11:57:44;100618.81;;;8.88;54.20
73918;BME280;63639;52.280;5.162;2023-01-19T12:00:23;100621.26;;;8.89;53.42
73918;BME280;63639;52.280;5.162;2023-01-19T12:02:54;100623.32;;;9.20;54.91
73918;BME280;63639;52.280;5.162;2023-01-19T12:05:25;100620.84;;;9.18;53.17
73918;BME280;63639;52.280;5.162;2023-01-19T12:07:57;100624.49;;;8.96;52.04
73918;BME280;63639;52.280;5.162;2023-01-19T12:10:27;100625.77;;;8.73;52.48
73918;BME280;63639;52.280;5.162;2023-01-19T12:12:55;100624.45;;;8.72;53.92
73918;BME280;63639;52.280;5.162;2023-01-19T12:15:28;100616.58;;;8.90;53.38
73918;BME280;63639;52.280;5.162;2023-01-19T12:17:59;100623.30;;;9.02;53.64
73918;BME280;63639;52.280;5.162;2023-01-19T12:20:30;100623.62;;;8.88;53.16
73918;BME280;63639;52.280;5.162;2023-01-19T12:23:08;100623.19;;;8.78;52.84
73918;BME280;63639;52.280;5.162;2023-01-19T12:25:47;100625.19;;;8.71;54.05
73918;BME280;63639;52.280;5.162;2023-01-19T12:28:18;100619.41;;;8.88;54.26
73918;BME280;63639;52.280;5.162;2023-01-19T12:30:49;100626.04;;;9.02;52.39
73918;BME280;63639;52.280;5.162;2023-01-19T12:33:22;100633.36;;;9.15;53.08
73918;BME280;63639;52.280;5.162;2023-01-19T12:35:57;100623.68;;;8.84;52.62
73918;BME280;63639;52.280;5.162;2023-01-19T12:38:36;100625.06;;;8.83;51.92
73918;BME280;63639;52.280;5.162;2023-01-19T12:41:16;100635.69;;;8.68;51.52
73918;BME280;63639;52.280;5.162;2023-01-19T12:43:43;100628.64;;;8.42;53.86
73918;BME280;63639;52.280;5.162;2023-01-19T12:46:19;100634.79;;;8.23;53.41
73918;BME280;63639;52.280;5.162;2023-01-19T12:48:49;100633.11;;;8.37;53.60
73918;BME280;63639;52.280;5.162;2023-01-19T12:51:24;100635.31;;;8.71;54.50
73918;BME280;63639;52.280;5.162;2023-01-19T12:53:52;100628.00;;;8.86;53.73
73918;BME280;63639;52.280;5.162;2023-01-19T12:56:26;100629.96;;;9.16;54.54
73918;BME280;63639;52.280;5.162;2023-01-19T12:58:55;100632.30;;;9.35;53.68
73918;BME280;63639;52.280;5.162;2023-01-19T13:01:23;100631.45;;;9.08;52.32
73918;BME280;63639;52.280;5.162;2023-01-19T13:03:59;100629.75;;;8.46;52.07
73918;BME280;63639;52.280;5.162;2023-01-19T13:08:12;100632.73;;;8.09;53.15
73918;BME280;63639;52.280;5.162;2023-01-19T13:11:12;100620.93;;;8.87;53.32
73918;BME280;63639;52.280;5.162;2023-01-19T13:13:40;100624.52;;;8.98;53.64